Time;durP1;ratioP1;P1;durP2;ratioP2;P2;SDS_P1;SDS_P2;PMS_P1;PMS_P2;Temp;Humidity;BMP_temperature;BMP_pressure;BME280_temperature;BME280_humidity;BME280_pressure;Samples;Min_cycle;Max_cycle;Signal;HPM_P1;HPM_P2
2024/04/11 00:00:36;;;;;;;1999.90;999.90;;;8.50;65.60;;;;;;5419303;26;20030;-71
2024/04/11 00:03:01;;;;;;;1999.90;999.90;;;8.50;65.70;;;;;;5422270;26;20022;-70
2024/04/11 00:05:27;;;;;;;1999.90;999.90;;;8.50;66.00;;;;;;5416623;26;20007;-71
2024/04/11 00:07:53;;;;;;;1999.90;999.90;;;8.50;66.20;;;;;;5417678;26;19999;-71
2024/04/11 00:10:18;;;;;;;1999.90;999.90;;;8.50;65.80;;;;;;5411089;26;19999;-71
2024/04/11 00:12:44;;;;;;;1999.90;999.90;;;8.50;65.80;;;;;;5421897;26;19999;-70
2024/04/11 00:15:10;;;;;;;1999.90;999.90;;;8.40;66.30;;;;;;5424376;26;20009;-70
2024/04/11 00:17:36;;;;;;;1999.90;999.90;;;8.50;66.00;;;;;;5423690;26;19991;-70
2024/04/11 00:20:03;;;;;;;1999.90;999.90;;;8.40;66.20;;;;;;5422379;26;20123;-70
2024/04/11 00:22:29;;;;;;;1999.90;999.90;;;8.40;66.60;;;;;;5417183;26;20065;-70
2024/04/11 00:24:55;;;;;;;1999.90;999.90;;;8.40;67.00;;;;;;5417117;26;20003;-71
2024/04/11 00:27:22;;;;;;;1999.90;999.90;;;8.30;67.40;;;;;;5411609;26;20438;-70
2024/04/11 00:29:47;;;;;;;1999.90;999.90;;;8.40;67.20;;;;;;5421288;26;20555;-71
2024/04/11 00:32:13;;;;;;;1999.90;999.90;;;8.30;67.50;;;;;;5424345;26;20085;-71
2024/04/11 00:34:43;;;;;;;1999.90;999.90;;;8.30;67.80;;;;;;5434147;26;19998;-71
2024/04/11 00:37:11;;;;;;;1999.90;999.90;;;8.40;67.70;;;;;;5423183;26;20015;-71
2024/04/11 00:39:37;;;;;;;1999.90;999.90;;;8.30;67.90;;;;;;5423871;26;20458;-71
2024/04/11 00:42:03;;;;;;;1999.90;999.90;;;8.30;68.30;;;;;;5418193;26;20016;-71
2024/04/11 00:44:32;;;;;;;1999.90;999.90;;;8.30;68.50;;;;;;5411956;26;19996;-71
2024/04/11 00:46:57;;;;;;;1999.90;999.90;;;8.30;68.80;;;;;;5421401;26;19991;-71
2024/04/11 00:49:23;;;;;;;1999.90;999.90;;;8.30;69.20;;;;;;5423902;26;20543;-71
2024/04/11 00:51:53;;;;;;;1999.90;999.90;;;8.20;69.70;;;;;;5409448;26;20396;-71
2024/04/11 00:54:19;;;;;;;1999.90;999.90;;;8.20;70.10;;;;;;5410939;26;20010;-71
2024/04/11 00:56:45;;;;;;;1999.90;999.90;;;8.20;70.80;;;;;;5417678;26;19996;-70
2024/04/11 00:59:14;;;;;;;1999.90;999.90;;;8.20;71.10;;;;;;5426424;26;20076;-71
2024/04/11 01:01:40;;;;;;;1999.90;999.90;;;8.10;72.00;;;;;;5410231;26;19999;-71
2024/04/11 01:04:06;;;;;;;1999.90;999.90;;;8.10;72.60;;;;;;5427849;26;20015;-71
2024/04/11 01:07:06;;;;;;;1999.90;999.90;;;8.10;73.20;;;;;;5425928;26;20010;-70
2024/04/11 01:09:28;;;;;;;1999.90;999.90;;;8.00;73.50;;;;;;5414688;26;20009;-70
2024/04/11 01:11:53;;;;;;;1999.90;999.90;;;8.00;73.70;;;;;;5427181;26;20046;-71
2024/04/11 01:14:19;;;;;;;1999.90;999.90;;;8.00;73.30;;;;;;5419327;26;20003;-71
2024/04/11 01:16:45;;;;;;;1999.90;999.90;;;8.00;73.30;;;;;;5425340;26;19995;-70
2024/04/11 01:19:11;;;;;;;1999.90;999.90;;;7.90;73.40;;;;;;5411555;26;20471;-71
2024/04/11 01:21:36;;;;;;;1999.90;999.90;;;7.90;73.80;;;;;;5412814;26;19991;-71
2024/04/11 01:24:03;;;;;;;1999.90;999.90;;;7.90;73.20;;;;;;5419137;26;20421;-70
2024/04/11 01:26:29;;;;;;;1999.90;999.90;;;7.90;72.90;;;;;;5418711;26;19999;-70
2024/04/11 01:28:55;;;;;;;1999.90;999.90;;;7.90;73.10;;;;;;5420822;26;20561;-70
2024/04/11 01:31:21;;;;;;;1999.90;999.90;;;7.90;73.20;;;;;;5431131;26;20092;-70
2024/04/11 01:33:46;;;;;;;1999.90;999.90;;;7.90;73.00;;;;;;5420173;26;20488;-70
2024/04/11 01:36:13;;;;;;;1999.90;999.90;;;7.80;73.30;;;;;;5418938;26;20109;-70
2024/04/11 01:38:39;;;;;;;;;;;7.70;73.30;;;;;;5414633;26;20064;-70
2024/04/11 01:41:04;;;;;;;1999.90;999.90;;;7.70;73.60;;;;;;5411630;26;20355;-70
2024/04/11 01:43:30;;;;;;;1999.90;999.90;;;7.70;73.60;;;;;;5416495;26;20076;-71
2024/04/11 01:45:56;;;;;;;1999.90;999.90;;;7.70;73.40;;;;;;5407634;26;20068;-70
2024/04/11 01:48:21;;;;;;;1999.90;999.90;;;7.70;73.30;;;;;;5411938;26;20015;-71
2024/04/11 01:50:48;;;;;;;1999.90;999.90;;;7.70;73.10;;;;;;5414965;26;20494;-70
2024/04/11 01:53:14;;;;;;;1999.90;999.90;;;7.70;73.00;;;;;;5416030;26;20497;-70
2024/04/11 01:55:41;;;;;;;1999.90;999.90;;;7.70;73.50;;;;;;5417889;26;20008;-71
2024/04/11 01:58:07;;;;;;;1999.90;999.90;;;7.80;73.00;;;;;;5435541;26;19998;-71
2024/04/11 02:00:36;;;;;;;1999.90;999.90;;;7.60;73.20;;;;;;5428406;26;19995;-71
2024/04/11 02:03:04;;;;;;;1999.90;999.90;;;7.60;73.60;;;;;;5423819;26;20038;-71
2024/04/11 02:05:31;;;;;;;1999.90;999.90;;;7.50;73.90;;;;;;5427050;26;19999;-70
2024/04/11 02:07:57;;;;;;;1999.90;999.90;;;7.50;74.00;;;;;;5411685;26;20038;-70
2024/04/11 02:10:22;;;;;;;1999.90;999.90;;;7.50;74.40;;;;;;5426961;26;20580;-71
2024/04/11 02:12:48;;;;;;;1999.90;999.90;;;7.40;74.50;;;;;;5422363;26;20014;-70
2024/04/11 02:15:14;;;;;;;1999.90;999.90;;;7.40;74.80;;;;;;5430950;26;20472;-70
2024/04/11 02:17:40;;;;;;;1999.90;999.90;;;7.30;75.30;;;;;;5419424;26;20031;-70
2024/04/11 02:20:10;;;;;;;1999.90;999.90;;;7.30;75.40;;;;;;5430929;26;20058;-70
2024/04/11 02:22:37;;;;;;;1999.90;999.90;;;7.10;76.20;;;;;;5413833;26;19999;-70
2024/04/11 02:25:03;;;;;;;1999.90;999.90;;;7.10;76.70;;;;;;5429407;26;20370;-70
2024/04/11 02:27:29;;;;;;;1999.90;999.90;;;7.10;76.70;;;;;;5427255;26;20000;-70
2024/04/11 02:29:55;;;;;;;1999.90;999.90;;;7.10;77.00;;;;;;5418102;26;20251;-70
2024/04/11 02:32:21;;;;;;;1999.90;999.90;;;7.20;77.10;;;;;;5419262;26;20047;-70
2024/04/11 02:34:48;;;;;;;1999.90;999.90;;;7.10;77.40;;;;;;5424890;26;20071;-70
2024/04/11 02:37:14;;;;;;;1999.90;999.90;;;7.00;77.90;;;;;;5423590;26;19994;-70
2024/04/11 02:39:40;;;;;;;1999.90;999.90;;;6.90;78.30;;;;;;5426279;26;20595;-70
2024/04/11 02:42:06;;;;;;;1999.90;999.90;;;7.00;78.30;;;;;;5429467;26;20014;-70
2024/04/11 02:44:33;;;;;;;1999.90;999.90;;;7.00;78.10;;;;;;5434264;26;20111;-70
2024/04/11 02:47:01;;;;;;;1999.90;999.90;;;6.90;78.70;;;;;;5420595;26;19999;-71
2024/04/11 02:49:29;;;;;;;1999.90;999.90;;;7.00;78.60;;;;;;5422576;26;20003;-70
2024/04/11 02:51:55;;;;;;;1999.90;999.90;;;6.90;79.10;;;;;;5418603;26;20007;-71
2024/04/11 02:54:20;;;;;;;1999.90;999.90;;;6.90;79.60;;;;;;5422585;26;20003;-70
2024/04/11 02:56:46;;;;;;;1999.90;999.90;;;6.90;80.30;;;;;;5426435;26;20895;-70
2024/04/11 02:59:12;;;;;;;1999.90;999.90;;;6.90;79.50;;;;;;5434209;26;19998;-71
2024/04/11 03:01:38;;;;;;;1999.90;999.90;;;6.90;79.80;;;;;;5409813;26;19999;-71
2024/04/11 03:04:04;;;;;;;1999.90;999.90;;;6.90;79.70;;;;;;5412293;26;20346;-70
2024/04/11 03:06:31;;;;;;;1999.90;999.90;;;6.80;80.00;;;;;;5421722;26;20054;-70
2024/04/11 03:08:58;;;;;;;1999.90;999.90;;;6.70;81.00;;;;;;5422201;26;19999;-71
2024/04/11 03:11:24;;;;;;;;;;;6.70;81.40;;;;;;5437557;26;20097;-70
2024/04/11 03:13:50;;;;;;;1999.90;999.90;;;6.60;81.70;;;;;;5419663;26;19936;-70
2024/04/11 03:16:18;;;;;;;1999.90;999.90;;;6.60;81.70;;;;;;5428811;26;20054;-70
2024/04/11 03:18:44;;;;;;;1999.90;999.90;;;6.50;81.80;;;;;;5436669;26;19996;-70
2024/04/11 03:21:10;;;;;;;1999.90;999.90;;;6.50;82.10;;;;;;5419192;26;20535;-71
2024/04/11 03:23:35;;;;;;;1999.90;999.90;;;6.60;82.20;;;;;;5421211;26;19992;-70
2024/04/11 03:26:01;;;;;;;1999.90;999.90;;;6.60;82.40;;;;;;5421895;26;20426;-70
2024/04/11 03:28:27;;;;;;;1999.90;999.90;;;6.50;82.60;;;;;;5420249;26;20007;-70
2024/04/11 03:31:06;;;;;;;1999.90;999.90;;;6.40;83.40;;;;;;5417402;26;20430;-71
2024/04/11 03:33:32;;;;;;;1999.90;999.90;;;6.40;83.70;;;;;;5422283;26;20000;-71
2024/04/11 03:36:02;;;;;;;1999.90;999.90;;;6.40;83.70;;;;;;5431584;26;20865;-70
2024/04/11 03:38:31;;;;;;;1999.90;999.90;;;6.40;84.20;;;;;;5421765;26;20424;-71
2024/04/11 03:41:08;;;;;;;1999.90;999.90;;;6.30;84.30;;;;;;5424619;26;20896;-70
2024/04/11 03:43:34;;;;;;;;;;;6.30;84.50;;;;;;5424935;26;20003;-70
2024/04/11 03:46:19;;;;;;;1999.90;999.90;;;6.30;84.50;;;;;;5416699;26;19943;-71
2024/04/11 03:48:51;;;;;;;1999.90;999.90;;;6.30;84.80;;;;;;5408141;26;20006;-70
2024/04/11 03:51:22;;;;;;;1999.90;999.90;;;6.30;85.00;;;;;;5424333;26;20021;-70
2024/04/11 03:53:55;;;;;;;1999.90;999.90;;;6.20;85.40;;;;;;5415285;26;20011;-70
2024/04/11 03:56:27;;;;;;;1999.90;999.90;;;6.10;86.10;;;;;;5421855;26;19994;-70
2024/04/11 03:58:56;;;;;;;1999.90;999.90;;;6.00;86.90;;;;;;5434182;26;19999;-70
2024/04/11 04:01:22;;;;;;;1999.90;999.90;;;6.00;87.30;;;;;;5416310;26;20000;-70
2024/04/11 04:03:49;;;;;;;1999.90;999.90;;;6.00;87.10;;;;;;5413571;26;20046;-70
2024/04/11 04:06:16;;;;;;;1999.90;999.90;;;6.00;86.90;;;;;;5428221;26;20518;-70
2024/04/11 04:08:46;;;;;;;;;;;6.00;87.10;;;;;;5420924;26;20014;-70
2024/04/11 04:11:16;;;;;;;1999.90;999.90;;;6.00;87.00;;;;;;5426981;26;20268;-70
2024/04/11 04:13:42;;;;;;;1999.90;999.90;;;6.10;86.80;;;;;;5423919;26;20097;-71
2024/04/11 04:16:14;;;;;;;1999.90;999.90;;;6.00;86.80;;;;;;5413805;26;20873;-70
2024/04/11 04:18:47;;;;;;;1999.90;999.90;;;6.10;86.60;;;;;;5425054;26;20007;-70
2024/04/11 04:21:16;;;;;;;1999.90;999.90;;;6.20;86.70;;;;;;5418388;26;20011;-70
2024/04/11 04:23:43;;;;;;;1999.90;999.90;;;6.20;86.50;;;;;;5418078;26;20011;-71
2024/04/11 04:26:10;;;;;;;1999.90;999.90;;;6.20;85.90;;;;;;5422153;26;20150;-71
2024/04/11 04:28:40;;;;;;;1999.90;999.90;;;6.30;86.00;;;;;;5425723;26;19999;-70
2024/04/11 04:31:16;;;;;;;1999.90;999.90;;;6.30;85.60;;;;;;5422795;26;20022;-71
2024/04/11 04:33:48;;;;;;;1999.90;999.90;;;6.30;85.30;;;;;;5424407;26;20676;-71
2024/04/11 04:36:19;;;;;;;1999.90;999.90;;;6.30;85.00;;;;;;5426622;26;20038;-70
2024/04/11 04:38:46;;;;;;;1999.90;999.90;;;6.30;85.10;;;;;;5428327;26;20026;-69
2024/04/11 04:41:13;;;;;;;1999.90;999.90;;;6.30;85.30;;;;;;5421637;26;20003;-69
2024/04/11 04:43:41;;;;;;;1999.90;999.90;;;6.30;85.20;;;;;;5406780;26;20096;-69
2024/04/11 04:46:06;;;;;;;1999.90;999.90;;;6.30;85.30;;;;;;5412657;26;20465;-69
2024/04/11 04:48:32;;;;;;;1999.90;999.90;;;6.10;85.70;;;;;;5408027;26;20043;-70
2024/04/11 04:51:01;;;;;;;1999.90;999.90;;;6.30;85.70;;;;;;5415852;26;20015;-70
2024/04/11 04:53:27;;;;;;;1999.90;999.90;;;6.40;84.90;;;;;;5413777;26;20000;-69
2024/04/11 04:55:52;;;;;;;1999.90;999.90;;;6.40;84.70;;;;;;5413588;26;20465;-69
2024/04/11 04:58:20;;;;;;;1999.90;999.90;;;6.30;84.90;;;;;;5417562;26;20005;-70
2024/04/11 05:00:46;;;;;;;1999.90;999.90;;;6.20;85.10;;;;;;5416401;26;20007;-70
2024/04/11 05:03:12;;;;;;;1999.90;999.90;;;6.30;85.00;;;;;;5428543;26;20010;-70
2024/04/11 05:05:38;;;;;;;1999.90;999.90;;;6.10;85.60;;;;;;5423409;26;20004;-70
2024/04/11 05:08:07;;;;;;;1999.90;999.90;;;6.10;85.80;;;;;;5436876;26;20004;-70
2024/04/11 05:10:40;;;;;;;1999.90;999.90;;;6.10;86.30;;;;;;5426197;26;20000;-69
2024/04/11 05:13:10;;;;;;;1999.90;999.90;;;5.90;87.40;;;;;;5416485;26;20446;-70
2024/04/11 05:15:36;;;;;;;1999.90;999.90;;;5.80;88.20;;;;;;5423180;26;20007;-70
2024/04/11 05:18:04;;;;;;;1999.90;999.90;;;5.70;88.60;;;;;;5417695;26;20017;-70
2024/04/11 05:20:32;;;;;;;1999.90;999.90;;;5.70;89.10;;;;;;5416254;26;20568;-71
2024/04/11 05:22:57;;;;;;;1999.90;999.90;;;5.80;89.00;;;;;;5418735;26;20449;-71
2024/04/11 05:25:23;;;;;;;1999.90;999.90;;;5.80;88.70;;;;;;5423133;26;19998;-71
2024/04/11 05:27:50;;;;;;;1999.90;999.90;;;6.00;88.20;;;;;;5413787;26;20560;-71
2024/04/11 05:30:17;;;;;;;1999.90;999.90;;;6.10;87.90;;;;;;5424702;26;19999;-71
2024/04/11 05:32:46;;;;;;;1999.90;999.90;;;6.50;86.10;;;;;;5415856;26;20029;-71
2024/04/11 05:35:13;;;;;;;1999.90;999.90;;;6.70;84.70;;;;;;5421911;26;20078;-71
2024/04/11 05:37:41;;;;;;;1999.90;999.90;;;7.10;83.90;;;;;;5434114;26;20000;-71
2024/04/11 05:40:07;;;;;;;1999.90;999.90;;;7.10;83.30;;;;;;5445739;26;20902;-71
2024/04/11 05:42:44;;;;;;;1999.90;999.90;;;7.20;83.90;;;;;;5426282;26;20039;-71
2024/04/11 05:45:11;;;;;;;1999.90;999.90;;;7.90;81.30;;;;;;5430773;26;20226;-71
2024/04/11 05:47:36;;;;;;;;;;;8.20;80.20;;;;;;5425872;26;20003;-71
2024/04/11 05:50:04;;;;;;;1999.90;999.90;;;8.00;79.30;;;;;;5420222;26;20783;-71
2024/04/11 05:52:31;;;;;;;1999.90;999.90;;;7.10;82.10;;;;;;5419989;26;20023;-71
2024/04/11 05:54:58;;;;;;;1999.90;999.90;;;6.90;83.60;;;;;;5408598;26;20011;-71
2024/04/11 05:57:24;;;;;;;1999.90;999.90;;;7.20;83.80;;;;;;5419179;26;19992;-71
2024/04/11 05:59:51;;;;;;;1999.90;999.90;;;7.60;83.50;;;;;;5435028;26;19995;-71
2024/04/11 06:02:17;;;;;;;1999.90;999.90;;;8.00;81.20;;;;;;5411486;26;20011;-71
2024/04/11 06:04:43;;;;;;;1999.90;999.90;;;9.00;77.60;;;;;;5406309;26;20019;-71
2024/04/11 06:07:09;;;;;;;1999.90;999.90;;;9.20;76.30;;;;;;5408469;26;20797;-71
2024/04/11 06:09:35;;;;;;;1999.90;999.90;;;9.20;75.90;;;;;;5442734;26;20445;-71
2024/04/11 06:12:01;;;;;;;1999.90;999.90;;;8.50;77.10;;;;;;5416019;26;20152;-71
2024/04/11 06:14:28;;;;;;;1999.90;999.90;;;7.90;78.90;;;;;;5413269;26;19995;-71
2024/04/11 06:16:54;;;;;;;;;;;7.90;79.80;;;;;;5433029;26;20003;-70
2024/04/11 06:19:20;;;;;;;1999.90;999.90;;;8.00;79.30;;;;;;5436186;26;20379;-71
2024/04/11 06:21:53;;;;;;;1999.90;999.90;;;8.40;79.00;;;;;;5429354;26;20039;-71
2024/04/11 06:24:22;;;;;;;1999.90;999.90;;;9.50;73.80;;;;;;5412216;26;20225;-71
2024/04/11 06:26:48;;;;;;;1999.90;999.90;;;10.40;72.90;;;;;;5422265;26;20017;-71
2024/04/11 06:29:19;;;;;;;1999.90;999.90;;;11.10;68.70;;;;;;5431674;26;20463;-71
2024/04/11 06:31:46;;;;;;;1999.90;999.90;;;11.30;67.90;;;;;;5416049;26;20481;-71
2024/04/11 06:34:13;;;;;;;;;;;12.00;65.60;;;;;;5424732;26;20085;-71
2024/04/11 06:36:39;;;;;;;1999.90;999.90;;;11.50;66.10;;;;;;5438016;26;20752;-71
2024/04/11 06:39:13;;;;;;;1999.90;999.90;;;12.70;65.90;;;;;;5422805;26;20019;-71
2024/04/11 06:41:39;;;;;;;1999.90;999.90;;;11.50;65.20;;;;;;5425958;26;20017;-71
2024/04/11 06:44:05;;;;;;;1999.90;999.90;;;11.50;66.60;;;;;;5411133;26;20003;-71
2024/04/11 06:46:33;;;;;;;1999.90;999.90;;;10.60;67.20;;;;;;5414067;26;20867;-71
2024/04/11 06:48:59;;;;;;;1999.90;999.90;;;12.20;65.50;;;;;;5412524;26;20014;-71
2024/04/11 06:51:25;;;;;;;1999.90;999.90;;;13.30;60.30;;;;;;5418794;26;20004;-71
2024/04/11 06:53:52;;;;;;;1999.90;999.90;;;12.40;61.20;;;;;;5409900;26;20003;-71
2024/04/11 06:56:22;;;;;;;1999.90;999.90;;;12.80;61.20;;;;;;5422815;26;20039;-71
2024/04/11 06:58:48;;;;;;;1999.90;999.90;;;14.10;59.10;;;;;;5439469;26;20003;-71
2024/04/11 07:01:15;;;;;;;1999.90;999.90;;;15.00;54.50;;;;;;5429863;26;19998;-71
2024/04/11 07:03:49;;;;;;;1999.90;999.90;;;15.50;52.90;;;;;;5417074;26;20011;-71
2024/04/11 07:06:21;;;;;;;1999.90;999.90;;;14.30;56.10;;;;;;5406754;26;20014;-71
2024/04/11 07:08:54;;;;;;;1999.90;999.90;;;13.50;58.10;;;;;;5422499;26;20016;-71
2024/04/11 07:11:27;;;;;;;1999.90;999.90;;;13.60;58.70;;;;;;5416006;26;20076;-71
2024/04/11 07:13:54;;;;;;;1999.90;999.90;;;14.00;59.00;;;;;;5422299;26;19996;-71
2024/04/11 07:16:25;;;;;;;1999.90;999.90;;;14.60;57.90;;;;;;5424377;26;19998;-71
2024/04/11 07:18:54;;;;;;;1999.90;999.90;;;14.80;56.50;;;;;;5433225;26;19999;-71
2024/04/11 07:21:26;;;;;;;1999.90;999.90;;;16.10;53.70;;;;;;5416075;26;20541;-71
2024/04/11 07:23:57;;;;;;;1999.90;999.90;;;15.80;55.00;;;;;;5422100;26;20000;-71
2024/04/11 07:26:29;;;;;;;1999.90;999.90;;;14.90;55.50;;;;;;5418996;26;20025;-71
2024/04/11 07:28:56;;;;;;;1999.90;999.90;;;13.40;59.80;;;;;;5416929;26;20076;-71
2024/04/11 07:31:22;;;;;;;1999.90;999.90;;;12.30;61.60;;;;;;5433019;26;20929;-71
2024/04/11 07:33:48;;;;;;;1999.90;999.90;;;12.80;64.20;;;;;;5415185;26;20006;-71
2024/04/11 07:36:16;;;;;;;1999.90;999.90;;;13.90;59.70;;;;;;5421291;26;20007;-71
2024/04/11 07:38:43;;;;;;;1999.90;999.90;;;14.10;58.80;;;;;;5426768;26;20014;-71
2024/04/11 07:41:17;;;;;;;1999.90;999.90;;;14.00;57.40;;;;;;5428054;26;20035;-71
2024/04/11 07:43:51;;;;;;;1999.90;999.90;;;14.90;56.80;;;;;;5421474;26;20014;-71
2024/04/11 07:46:22;;;;;;;1999.90;999.90;;;16.60;52.40;;;;;;5413867;26;19999;-70
2024/04/11 07:48:48;;;;;;;1999.90;999.90;;;16.70;51.60;;;;;;5442974;26;19998;-71
2024/04/11 07:51:15;;;;;;;1999.90;999.90;;;17.50;50.20;;;;;;5418662;26;20035;-71
2024/04/11 07:53:43;;;;;;;1999.90;999.90;;;18.50;49.60;;;;;;5419391;26;20000;-71
2024/04/11 07:56:09;;;;;;;1999.90;999.90;;;18.30;48.90;;;;;;5428935;26;20009;-71
2024/04/11 07:58:38;;;;;;;1999.90;999.90;;;19.30;48.80;;;;;;5436546;26;19999;-71
2024/04/11 08:01:04;;;;;;;1999.90;999.90;;;21.00;45.20;;;;;;5404619;26;20042;-71
2024/04/11 08:03:30;;;;;;;1999.90;999.90;;;20.70;45.90;;;;;;5425189;26;20007;-71
2024/04/11 08:05:56;;;;;;;1999.90;999.90;;;20.50;42.80;;;;;;5418707;26;20003;-71
2024/04/11 08:08:22;;;;;;;1999.90;999.90;;;18.30;45.70;;;;;;5418229;26;20031;-71
2024/04/11 08:10:49;;;;;;;1999.90;999.90;;;17.60;48.30;;;;;;5408377;26;20003;-71
2024/04/11 08:13:18;;;;;;;1999.90;999.90;;;17.90;49.00;;;;;;5411917;26;19995;-71
2024/04/11 08:15:44;;;;;;;1999.90;999.90;;;19.00;44.10;;;;;;5427401;26;20002;-71
2024/04/11 08:18:11;;;;;;;1999.90;999.90;;;16.30;49.10;;;;;;5454304;26;20003;-71
2024/04/11 08:20:36;;;;;;;1999.90;999.90;;;15.00;53.20;;;;;;5417341;26;20006;-71
2024/04/11 08:23:04;;;;;;;1999.90;999.90;;;13.80;56.50;;;;;;5429193;26;20472;-71
2024/04/11 08:25:29;;;;;;;1999.90;999.90;;;13.10;57.80;;;;;;5406561;26;20225;-71
2024/04/11 08:27:56;;;;;;;1999.90;999.90;;;13.30;57.90;;;;;;5408286;26;20952;-71
2024/04/11 08:30:22;;;;;;;1999.90;999.90;;;15.30;55.50;;;;;;5423959;26;20031;-71
2024/04/11 08:32:48;;;;;;;1999.90;999.90;;;16.20;51.70;;;;;;5408756;26;20024;-71
2024/04/11 08:35:19;;;;;;;1999.90;999.90;;;15.40;53.50;;;;;;5423571;26;20018;-71
2024/04/11 08:37:57;;;;;;;1999.90;999.90;;;15.20;55.80;;;;;;5409196;26;20011;-71
2024/04/11 08:40:23;;;;;;;1999.90;999.90;;;17.90;53.10;;;;;;5415755;26;20000;-71
2024/04/11 08:42:49;;;;;;;;;;;19.70;52.80;;;;;;5411705;26;20100;-71
2024/04/11 08:45:15;;;;;;;1999.90;999.90;;;21.70;48.40;;;;;;5418000;26;19937;-71
2024/04/11 08:47:41;;;;;;;1999.90;999.90;;;21.90;47.10;;;;;;5407150;26;19995;-71
2024/04/11 08:50:07;;;;;;;1999.90;999.90;;;23.30;45.30;;;;;;5421550;26;20434;-71
2024/04/11 08:52:36;;;;;;;;;;;24.50;43.20;;;;;;5412842;26;19995;-71
2024/04/11 08:55:03;;;;;;;1999.90;999.90;;;24.50;42.10;;;;;;5430610;26;19993;-71
2024/04/11 08:57:29;;;;;;;1999.90;999.90;;;25.00;39.10;;;;;;5424888;26;20473;-71
2024/04/11 08:59:55;;;;;;;;;;;25.20;40.10;;;;;;5428781;26;20656;-71
2024/04/11 09:02:21;;;;;;;1999.90;999.90;;;25.00;37.80;;;;;;5420865;26;19941;-71
2024/04/11 09:04:47;;;;;;;1999.90;999.90;;;25.20;36.80;;;;;;5411458;26;20579;-71
2024/04/11 09:07:23;;;;;;;;;;;24.80;37.40;;;;;;5422219;26;19996;-71
2024/04/11 09:09:49;;;;;;;1999.90;999.90;;;25.50;35.40;;;;;;5424550;26;19924;-71
2024/04/11 09:12:17;;;;;;;1999.90;999.90;;;25.40;35.90;;;;;;5428669;26;20022;-71
2024/04/11 09:14:44;;;;;;;1999.90;999.90;;;25.80;36.70;;;;;;5408603;26;20014;-71
2024/04/11 09:17:13;;;;;;;1999.90;999.90;;;26.50;34.90;;;;;;5451538;26;20079;-71
2024/04/11 09:19:43;;;;;;;1999.90;999.90;;;26.90;36.70;;;;;;5417298;26;20353;-72
2024/04/11 09:22:13;;;;;;;1999.90;999.90;;;27.00;36.90;;;;;;5414698;26;20011;-71
2024/04/11 09:24:41;;;;;;;1999.90;999.90;;;26.60;33.00;;;;;;5408948;26;20013;-71
2024/04/11 09:27:11;;;;;;;1999.90;999.90;;;27.30;34.20;;;;;;5408582;26;19995;-71
2024/04/11 09:29:37;;;;;;;1999.90;999.90;;;26.80;32.10;;;;;;5407075;26;20008;-72
2024/04/11 09:32:03;;;;;;;;;;;26.00;34.40;;;;;;5418953;26;20014;-71
2024/04/11 09:34:32;;;;;;;1999.90;999.90;;;26.80;35.90;;;;;;5409972;26;19925;-71
2024/04/11 09:36:59;;;;;;;1999.90;999.90;;;27.00;34.80;;;;;;5418861;26;20003;-71
2024/04/11 09:39:46;;;;;;;1999.90;999.90;;;26.00;35.00;;;;;;5422874;26;20053;-71
2024/04/11 09:42:20;;;;;;;1999.90;999.90;;;26.90;35.60;;;;;;5415708;26;20470;-71
2024/04/11 09:44:48;;;;;;;1999.90;999.90;;;27.50;35.70;;;;;;5415808;26;20027;-71
2024/04/11 09:47:19;;;;;;;1999.90;999.90;;;26.80;34.20;;;;;;5405487;26;20000;-71
2024/04/11 09:50:04;;;;;;;1999.90;999.90;;;27.20;36.20;;;;;;5420862;26;19999;-71
2024/04/11 09:52:34;;;;;;;1999.90;999.90;;;28.00;34.90;;;;;;5410846;26;20011;-71
2024/04/11 09:55:04;;;;;;;1999.90;999.90;;;28.30;34.10;;;;;;5421122;26;20806;-71
2024/04/11 09:57:41;;;;;;;1999.90;999.90;;;27.70;34.70;;;;;;5423393;26;20010;-71
2024/04/11 10:03:10;;;;;;;1999.90;999.90;;;29.00;32.30;;;;;;5469956;26;20480;-71
2024/04/11 10:05:40;;;;;;;1999.90;999.90;;;28.70;31.30;;;;;;5418379;26;20002;-71
2024/04/11 10:08:16;;;;;;;1999.90;999.90;;;28.90;31.70;;;;;;5418457;26;20013;-71
2024/04/11 10:10:42;;;;;;;1999.90;999.90;;;28.70;30.60;;;;;;5421544;26;20036;-71
2024/04/11 10:13:12;;;;;;;1999.90;999.90;;;27.30;32.40;;;;;;5407194;26;19995;-71
2024/04/11 10:15:39;;;;;;;1999.90;999.90;;;25.50;33.60;;;;;;5433791;26;20983;-71
2024/04/11 10:18:10;;;;;;;1999.90;999.90;;;24.30;35.50;;;;;;5449775;26;20006;-71
2024/04/11 10:21:01;;;;;;;1999.90;999.90;;;23.50;37.10;;;;;;5424993;26;20444;-71
2024/04/11 10:23:32;;;;;;;1999.90;999.90;;;23.10;36.60;;;;;;5447196;26;19999;-71
2024/04/11 10:26:02;;;;;;;1999.90;999.90;;;22.40;40.60;;;;;;5436223;26;20101;-71
2024/04/11 10:28:46;;;;;;;1999.90;999.90;;;22.20;38.60;;;;;;5421259;26;20015;-71
2024/04/11 10:31:25;;;;;;;1999.90;999.90;;;21.50;38.40;;;;;;5416503;26;20003;-71
2024/04/11 10:33:59;;;;;;;1999.90;999.90;;;21.80;40.10;;;;;;5405717;26;20054;-71
2024/04/11 10:36:32;;;;;;;1999.90;999.90;;;21.40;44.20;;;;;;5428011;26;20003;-71
2024/04/11 10:39:08;;;;;;;1999.90;999.90;;;21.30;43.50;;;;;;5414370;26;20202;-71
2024/04/11 10:41:34;;;;;;;1999.90;999.90;;;21.40;45.10;;;;;;5418402;26;20003;-71
2024/04/11 10:44:02;;;;;;;1999.90;999.90;;;21.30;42.80;;;;;;5415267;26;20000;-71
2024/04/11 10:46:30;;;;;;;1999.90;999.90;;;21.20;41.20;;;;;;5413644;26;19999;-71
2024/04/11 10:49:12;;;;;;;1999.90;999.90;;;20.70;42.60;;;;;;5436116;26;20014;-71
2024/04/11 10:51:41;;;;;;;1999.90;999.90;;;20.80;43.70;;;;;;5441883;26;20003;-71
2024/04/11 10:54:11;;;;;;;1999.90;999.90;;;20.90;41.10;;;;;;5405822;26;20010;-72
2024/04/11 10:56:41;;;;;;;1999.90;999.90;;;21.00;43.20;;;;;;5426331;26;20677;-71
2024/04/11 10:59:17;;;;;;;1999.90;999.90;;;20.90;46.30;;;;;;5425710;26;20008;-71
2024/04/11 11:01:50;;;;;;;1999.90;999.90;;;20.70;45.40;;;;;;5416165;26;20014;-71
2024/04/11 11:04:19;;;;;;;1999.90;999.90;;;20.60;46.50;;;;;;5428698;26;20014;-71
2024/04/11 11:06:54;;;;;;;1999.90;999.90;;;20.20;47.70;;;;;;5407418;26;19999;-71
2024/04/11 11:09:22;;;;;;;1999.90;999.90;;;20.30;46.20;;;;;;5414347;26;19999;-71
2024/04/11 11:11:49;;;;;;;1999.90;999.90;;;20.70;50.20;;;;;;5411948;26;20000;-71
2024/04/11 11:14:20;;;;;;;1999.90;999.90;;;20.50;52.10;;;;;;5422734;26;20042;-71
2024/04/11 11:16:47;;;;;;;1999.90;999.90;;;19.90;48.70;;;;;;5433070;26;20009;-71
2024/04/11 11:19:16;;;;;;;1999.90;999.90;;;19.90;49.50;;;;;;5425022;26;20003;-71
2024/04/11 11:21:50;;;;;;;1999.90;999.90;;;20.00;48.70;;;;;;5430771;26;20014;-71
2024/04/11 11:24:23;;;;;;;1999.90;999.90;;;20.20;49.80;;;;;;5422679;26;20977;-71
2024/04/11 11:26:53;;;;;;;1999.90;999.90;;;20.20;48.30;;;;;;5409551;26;20011;-71
2024/04/11 11:29:26;;;;;;;1999.90;999.90;;;19.90;49.70;;;;;;5409196;26;20076;-71
2024/04/11 11:32:01;;;;;;;1999.90;999.90;;;19.60;46.20;;;;;;5415035;26;20018;-71
2024/04/11 11:34:31;;;;;;;1999.90;999.90;;;20.00;49.50;;;;;;5418720;26;20094;-71
2024/04/11 11:37:01;;;;;;;1999.90;999.90;;;20.10;52.00;;;;;;5418183;26;20007;-71
2024/04/11 11:39:35;;;;;;;1999.90;999.90;;;20.00;50.50;;;;;;5434019;26;19998;-71
2024/04/11 11:42:23;;;;;;;1999.90;999.90;;;20.10;52.70;;;;;;5426702;26;20000;-71
2024/04/11 11:47:33;;;;;;;1999.90;999.90;;;19.90;50.40;;;;;;5420145;26;20010;-71
2024/04/11 11:50:10;;;;;;;1999.90;999.90;;;19.80;45.60;;;;;;5405787;26;20000;-71
2024/04/11 11:52:36;;;;;;;1999.90;999.90;;;19.60;42.30;;;;;;5415779;26;19999;-71
2024/04/11 11:55:03;;;;;;;1999.90;999.90;;;19.80;50.80;;;;;;5424976;26;19998;-71
2024/04/11 11:57:39;;;;;;;1999.90;999.90;;;19.90;53.90;;;;;;5442865;26;19999;-71
2024/04/11 12:00:21;;;;;;;1999.90;999.90;;;19.80;44.50;;;;;;5417664;26;20019;-71
2024/04/11 12:02:56;;;;;;;1999.90;999.90;;;20.00;51.10;;;;;;5404494;26;20015;-71
2024/04/11 12:05:24;;;;;;;1999.90;999.90;;;19.90;50.00;;;;;;5409881;26;20003;-71
2024/04/11 12:07:54;;;;;;;1999.90;999.90;;;19.80;51.50;;;;;;5405842;26;20003;-71
2024/04/11 12:10:21;;;;;;;1999.90;999.90;;;19.80;51.40;;;;;;5422178;26;20014;-71
2024/04/11 12:12:48;;;;;;;1999.90;999.90;;;19.60;49.20;;;;;;5420782;26;19995;-71
2024/04/11 12:15:14;;;;;;;1999.90;999.90;;;19.90;49.40;;;;;;5416447;26;20046;-71
2024/04/11 12:17:40;;;;;;;1999.90;999.90;;;20.00;51.30;;;;;;5435527;26;20030;-71
2024/04/11 12:20:06;;;;;;;1999.90;999.90;;;20.00;50.30;;;;;;5414312;26;20770;-71